Velkommen til min vejrside, der er mangler og fejl som bliver opdateret. Kom snart tilbage og få vejret - Welcome to our website - Welkom op onze vernieuwde website
Bienvenue sur notre site web - Willkommen auf unserer Website - Check our progress frequently. Prüfen Sie unsere Fortschritte regelmäßig. Consultez notre progression fréquemment. Komt u straks nog eens terug


vejr3>nv more information Vejr3>NV


3 timers nedbørs radar more information rain snow radar


besøg nogle andre vejrsider:

Template dokumentation
og downloads

And another site


weather underground historie, tekst side

dagens sammenfatning af februar 23, 2018 enheder:  metrisk    engelsk   både
« forgående dag
næste dag »
dagens ugenligt månedlig årligt tilpasset
  aktuelt: høj: lav: gennemsnit:
temperatur: -17.3 °C -17.8 °C -20.9 °C -20.1 °C
dugpunkt: -19.1 °C -17.8 °C -21.2 °C -20.4 °C
fugtighed: 79 % Humidity % 79 % 95 %
vindhastighed: 11.9 km/h 0 km/h 0 km/h 5.6 km/h
vindstød: 11.9 km/h 0 km/h - -
vind:SW - - ESE
lufttryk: 34818.2 hPa 0 hPa 34774.2 hPa -
nedbør: 0 mm      
Historical Graphs
 
 
tabeldata for februar 23, 2018
tid temperatur dugpunkt lufttryk vind vindhastighed vindstød fugtighed regn (timme)
-17.8 °C -17.8 °C 0 hPa Calm     Humidity % 0 mm
00:01 -20.1 °C -20.5 °C 34784.4 hPa ENE 9 km/h 9 km/h 95 % 0 mm
00:06 -20.2 °C -20.5 °C 34784.4 hPa ENE 9 km/h 9 km/h 95 % 0 mm
00:11 -20.2 °C -20.5 °C 34784.4 hPa ENE 6 km/h 6 km/h 95 % 0 mm
00:16 -20.2 °C -20.5 °C 34784.4 hPa ENE 6 km/h 6 km/h 95 % 0 mm
00:21 -20.2 °C -20.5 °C 34784.4 hPa ENE 6 km/h 6 km/h 95 % 0 mm
00:26 -20.2 °C -20.5 °C 34784.4 hPa ENE 6 km/h 6 km/h 95 % 0 mm
00:31 -20.2 °C -20.5 °C 34784.4 hPa ENE 6 km/h 6 km/h 95 % 0 mm
00:36 -20.2 °C -20.6 °C 34784.4 hPa East 9 km/h 9 km/h 95 % 0 mm
00:41 -20.2 °C -20.6 °C 34784.4 hPa East 9 km/h 9 km/h 95 % 0 mm
00:46 -20.2 °C -20.6 °C 34784.4 hPa East 9 km/h 9 km/h 95 % 0 mm
00:51 -20.2 °C -20.6 °C 34784.4 hPa East 9 km/h 9 km/h 95 % 0 mm
00:56 -20.3 °C -20.7 °C 34784.4 hPa East 9 km/h 9 km/h 95 % 0 mm
01:01 -20.3 °C -20.7 °C 34784.4 hPa East 5.1 km/h 7.7 km/h 95 % 0 mm
01:06 -20.3 °C -20.7 °C 34784.4 hPa East 9 km/h 9 km/h 95 % 0 mm
01:11 -20.3 °C -20.7 °C 34784.4 hPa East 9 km/h 9 km/h 95 % 0 mm
01:16 -20.3 °C -20.7 °C 34784.4 hPa East 9 km/h 9 km/h 95 % 0 mm
01:21 -20.4 °C -20.7 °C 34784.4 hPa East 9 km/h 9 km/h 95 % 0 mm
01:26 -20.4 °C -20.7 °C 34784.4 hPa ENE 9 km/h 9 km/h 95 % 0 mm
01:31 -20.4 °C -20.8 °C 34784.4 hPa East 10.3 km/h 10.3 km/h 95 % 0 mm
01:36 -20.4 °C -20.7 °C 34784.4 hPa East 10.3 km/h 10.3 km/h 96 % 0 mm
01:41 -20.4 °C -20.7 °C 34784.4 hPa East 9 km/h 9 km/h 96 % 0 mm
01:46 -20.4 °C -20.7 °C 34784.4 hPa East 10.3 km/h 10.3 km/h 96 % 0 mm
01:51 -20.4 °C -20.7 °C 34784.4 hPa East 9 km/h 9 km/h 96 % 0 mm
01:56 -20.3 °C -20.7 °C 34784.4 hPa East 9 km/h 9 km/h 96 % 0 mm
02:01 -20.3 °C -20.6 °C 34784.4 hPa East 10.3 km/h 10.3 km/h 96 % 0 mm
02:06 -20.3 °C -20.6 °C 34784.4 hPa East 9 km/h 9 km/h 96 % 0 mm
02:11 -20.3 °C -20.6 °C 34784.4 hPa East 9 km/h 9 km/h 96 % 0 mm
02:16 -20.2 °C -20.6 °C 34784.4 hPa East 9 km/h 9 km/h 96 % 0 mm
02:21 -20.3 °C -20.6 °C 34784.4 hPa East 9 km/h 9 km/h 96 % 0 mm
02:26 -20.3 °C -20.6 °C 34784.4 hPa East 9 km/h 9 km/h 96 % 0 mm
02:31 -20.3 °C -20.6 °C 34784.4 hPa East 9 km/h 9 km/h 96 % 0 mm
02:36 -20.3 °C -20.6 °C 34784.4 hPa East 9 km/h 9 km/h 96 % 0 mm
02:41 -20.3 °C -20.6 °C 34784.4 hPa East 9 km/h 9 km/h 96 % 0 mm
02:46 -20.3 °C -20.7 °C 34784.4 hPa East 9 km/h 9 km/h 96 % 0 mm
02:51 -20.4 °C -20.7 °C 34784.4 hPa East 7.7 km/h 7.7 km/h 96 % 0 mm
02:56 -20.4 °C -20.7 °C 34784.4 hPa East 9 km/h 9 km/h 96 % 0 mm
03:01 -20.4 °C -20.7 °C 34784.4 hPa East 6 km/h 6 km/h 96 % 0 mm
03:06 -20.4 °C -20.8 °C 34784.4 hPa East 6 km/h 6 km/h 96 % 0 mm
03:11 -20.5 °C -20.8 °C 34784.4 hPa East 6 km/h 6 km/h 96 % 0 mm
03:16 -20.5 °C -20.8 °C 34784.4 hPa East 9 km/h 9 km/h 96 % 0 mm
03:21 -20.6 °C -20.9 °C 34774.2 hPa East 10.3 km/h 10.3 km/h 96 % 0 mm
03:26 -20.6 °C -20.9 °C 34774.2 hPa East 9 km/h 9 km/h 96 % 0 mm
03:31 -20.6 °C -20.9 °C 34774.2 hPa East 9 km/h 9 km/h 96 % 0 mm
03:36 -20.6 °C -20.9 °C 34774.2 hPa East 9 km/h 9 km/h 96 % 0 mm
03:41 -20.6 °C -20.9 °C 34774.2 hPa East 10.3 km/h 10.3 km/h 96 % 0 mm
03:46 -20.6 °C -20.9 °C 34774.2 hPa ESE 10.3 km/h 10.3 km/h 96 % 0 mm
03:51 -20.6 °C -20.9 °C 34774.2 hPa ESE 9 km/h 9 km/h 96 % 0 mm
03:56 -20.6 °C -20.9 °C 34774.2 hPa East 9 km/h 9 km/h 96 % 0 mm
04:01 -20.6 °C -20.9 °C 34774.2 hPa East 9 km/h 9 km/h 96 % 0 mm
04:06 -20.7 °C -21 °C 34774.2 hPa East 10.3 km/h 10.3 km/h 96 % 0 mm
04:11 -20.7 °C -21 °C 34774.2 hPa East 10.3 km/h 10.3 km/h 96 % 0 mm
04:16 -20.7 °C -21 °C 34774.2 hPa East 9 km/h 9 km/h 96 % 0 mm
04:21 -20.7 °C -21 °C 34774.2 hPa East 3.1 km/h 3.1 km/h 96 % 0 mm
04:26 -20.7 °C -21.1 °C 34774.2 hPa Calm     96 % 0 mm
04:31 -20.8 °C -21.2 °C 34774.2 hPa Calm     95 % 0 mm
04:36 -20.8 °C -21.1 °C 34774.2 hPa Calm     96 % 0 mm
04:41 -20.8 °C -21.2 °C 34774.2 hPa Calm     96 % 0 mm
04:46 -20.8 °C -21.2 °C 34774.2 hPa Calm     96 % 0 mm
04:51 -20.8 °C -21.2 °C 34774.2 hPa Calm     96 % 0 mm
04:56 -20.8 °C -21.2 °C 34774.2 hPa Calm     96 % 0 mm
05:01 -20.8 °C -21.2 °C 34774.2 hPa Calm     96 % 0 mm
05:06 -20.8 °C -21.2 °C 34774.2 hPa Calm     96 % 0 mm
05:11 -20.9 °C -21.2 °C 34774.2 hPa Calm     96 % 0 mm
05:16 -20.9 °C -21.2 °C 34774.2 hPa Calm     96 % 0 mm
05:21 -20.9 °C -21.2 °C 34774.2 hPa Calm     96 % 0 mm
05:26 -20.9 °C -21.2 °C 34774.2 hPa Calm     96 % 0 mm
05:31 -20.9 °C -21.2 °C 34774.2 hPa Calm     96 % 0 mm
05:36 -20.9 °C -21.2 °C 34774.2 hPa East 3.1 km/h 3.1 km/h 96 % 0 mm
05:41 -20.9 °C -21.2 °C 34774.2 hPa East 6 km/h 6 km/h 96 % 0 mm
05:46 -20.9 °C -21.2 °C 34774.2 hPa East 6 km/h 6 km/h 96 % 0 mm
05:51 -20.9 °C -21.2 °C 34774.2 hPa East 6 km/h 6 km/h 96 % 0 mm
05:56 -20.9 °C -21.1 °C 34774.2 hPa East 3.1 km/h 3.1 km/h 97 % 0 mm
06:01 -20.8 °C -21.1 °C 34774.2 hPa Calm     97 % 0 mm
06:06 -20.8 °C -21.1 °C 34774.2 hPa Calm     97 % 0 mm
06:11 -20.8 °C -21.1 °C 34774.2 hPa Calm     97 % 0 mm
06:16 -20.8 °C -21 °C 34774.2 hPa Calm     97 % 0 mm
06:21 -20.7 °C -20.9 °C 34774.2 hPa Calm     97 % 0 mm
06:26 -20.8 °C -21 °C 34774.2 hPa Calm     97 % 0 mm
06:31 -20.8 °C -21 °C 34774.2 hPa Calm     97 % 0 mm
06:36 -20.8 °C -21.1 °C 34774.2 hPa Calm     96 % 0 mm
06:41 -20.8 °C -21.1 °C 34774.2 hPa Calm     96 % 0 mm
06:46 -20.8 °C -21 °C 34774.2 hPa Calm     97 % 0 mm
06:51 -20.8 °C -21 °C 34774.2 hPa Calm     97 % 0 mm
06:56 -20.7 °C -20.9 °C 34774.2 hPa Calm     97 % 0 mm
07:01 -20.7 °C -20.9 °C 34784.4 hPa Calm     97 % 0 mm
07:06 -20.7 °C -20.9 °C 34784.4 hPa Calm     97 % 0 mm
07:11 -20.7 °C -20.9 °C 34784.4 hPa Calm     97 % 0 mm
07:16 -20.7 °C -20.9 °C 34784.4 hPa Calm     97 % 0 mm
07:21 -20.7 °C -20.9 °C 34784.4 hPa Calm     97 % 0 mm
07:26 -20.7 °C -20.9 °C 34784.4 hPa Calm     97 % 0 mm
07:31 -20.7 °C -20.9 °C 34784.4 hPa Calm     97 % 0 mm
07:36 -20.7 °C -20.9 °C 34784.4 hPa Calm     97 % 0 mm
07:41 -20.7 °C -20.9 °C 34784.4 hPa Calm     97 % 0 mm
07:46 -20.7 °C -20.9 °C 34784.4 hPa Calm     97 % 0 mm
07:51 -20.7 °C -20.9 °C 34797.9 hPa Calm     97 % 0 mm
07:56 -20.7 °C -20.9 °C 34797.9 hPa Calm     97 % 0 mm
08:01 -20.6 °C -20.8 °C 34784.4 hPa Calm     97 % 0 mm
08:06 -20.6 °C -20.8 °C 34784.4 hPa Calm     97 % 0 mm
08:11 -20.4 °C -20.7 °C 34797.9 hPa Calm     97 % 0 mm
08:16 -20.4 °C -20.6 °C 34797.9 hPa Calm     97 % 0 mm
08:21 -20.4 °C -20.6 °C 34797.9 hPa Calm     97 % 0 mm
08:26 -20.2 °C -20.4 °C 34797.9 hPa Calm     97 % 0 mm
08:31 -20.2 °C -20.2 °C 34797.9 hPa Calm     100 % 0 mm
08:36 -20.1 °C -20.1 °C 34797.9 hPa Calm     100 % 0 mm
08:41 -19.9 °C -19.9 °C 34797.9 hPa SE 10.3 km/h 10.3 km/h 100 % 0 mm
08:46 -19.9 °C -19.9 °C 34797.9 hPa SE 10.3 km/h 10.3 km/h 100 % 0 mm
08:51 -19.8 °C -19.8 °C 34808.1 hPa SE 10.3 km/h 10.3 km/h 100 % 0 mm
08:56 -19.7 °C -19.7 °C 34808.1 hPa SE 10.3 km/h 10.3 km/h 100 % 0 mm
09:01 -19.6 °C -19.8 °C 34808.1 hPa ESE 9 km/h 9 km/h 97 % 0 mm
09:06 -19.6 °C -19.8 °C 34808.1 hPa ESE 9 km/h 9 km/h 97 % 0 mm
09:11 -19.5 °C -19.5 °C 34808.1 hPa SE 7.7 km/h 7.7 km/h 100 % 0 mm
09:16 -19.4 °C -19.4 °C 34808.1 hPa SSE 9 km/h 9 km/h 100 % 0 mm
09:21 -19.3 °C -19.3 °C 34808.1 hPa SSE 9 km/h 9 km/h 100 % 0 mm
09:26 -19.1 °C -19.1 °C 34808.1 hPa SSE 9 km/h 9 km/h 100 % 0 mm
09:31 -19.1 °C -19.3 °C 34808.1 hPa SSE 9 km/h 9 km/h 97 % 0 mm
09:36 -18.9 °C -19.1 °C 34808.1 hPa SSE 9 km/h 9 km/h 97 % 0 mm
09:41 -18.8 °C -19.1 °C 34808.1 hPa South 9 km/h 9 km/h 97 % 0 mm
09:46 -18.8 °C -19.1 °C 34808.1 hPa South 10.3 km/h 10.3 km/h 96 % 0 mm
09:51 -18.7 °C -19.1 °C 34808.1 hPa South 9 km/h 9 km/h 95 % 0 mm
09:56 -18.7 °C -19.1 °C 34808.1 hPa South 9 km/h 9 km/h 95 % 0 mm
10:01 -18.6 °C -19.1 °C 34808.1 hPa SW 9 km/h 9 km/h 94 % 0 mm
10:06 -18.6 °C -19 °C 34808.1 hPa SE 9 km/h 9 km/h 94 % 0 mm
10:11 -18.5 °C -18.9 °C 34808.1 hPa SSE 9 km/h 9 km/h 94 % 0 mm
10:16 -18.4 °C -18.8 °C 34808.1 hPa SSW 9 km/h 9 km/h 94 % 0 mm
10:21 -18.3 °C -18.7 °C 34818.2 hPa SW 9 km/h 9 km/h 94 % 0 mm
10:27 -18.2 °C -18.7 °C 34818.2 hPa South 9 km/h 9 km/h 93 % 0 mm
10:32 -18.1 °C -18.7 °C 34818.2 hPa SSE 9 km/h 9 km/h 92 % 0 mm
10:37 -18 °C -18.8 °C 34818.2 hPa SSE 9 km/h 9 km/h 90 % 0 mm
10:42 -17.9 °C -18.8 °C 34818.2 hPa WSW 9 km/h 9 km/h 89 % 0 mm
10:47 -17.8 °C -18.8 °C 34818.2 hPa SSW 9 km/h 9 km/h 88 % 0 mm
10:52 -17.7 °C -18.9 °C 34818.2 hPa SSE 9 km/h 9 km/h 85 % 0 mm
10:57 -17.7 °C -18.9 °C 34818.2 hPa West 7.7 km/h 7.7 km/h 85 % 0 mm
11:02 -17.6 °C -18.9 °C 34818.2 hPa NW 9 km/h 9 km/h 84 % 0 mm
11:07 -17.5 °C -18.8 °C 34818.2 hPa SW 9 km/h 9 km/h 84 % 0 mm
11:12 -17.4 °C -19 °C 34818.2 hPa West 10.3 km/h 10.3 km/h 82 % 0 mm
11:17 -17.4 °C -19.1 °C 34818.2 hPa SW 9 km/h 9 km/h 80 % 0 mm
11:22 -17.3 °C -19.1 °C 34818.2 hPa SW 11.9 km/h 11.9 km/h 79 % 0 mm
Vejr3
tilladelse af Weather Underground - 3.25 mb

script udviklet af  Jim McMurry - jmcmurry@mwt.net tilpasset til dette template  Wim van der Kuil - Leuven-Template.eu

du finder også vores vejrinformationer på:

European Weather Network

Weather Underground

AWEKAS

WeatherlinkIP

Citizen Weather Observer Program (CWOP)

udstyr som vi anvender:

vejrstation
Davis VP2+

vejrprogram
Weather Display

vejrserver
Dell E6400

hjemmeside host
Webhosting.dk

Davis VP2+

Weather Display

Dell E6400

Webhosting.dk